createdAt,value
2023-05-14T00:01:21.180Z,101586.91
2023-05-14T00:03:48.866Z,101594.81
2023-05-14T00:06:17.646Z,101590.53
2023-05-14T00:08:45.609Z,101581.88
2023-05-14T00:11:13.284Z,101586.28
2023-05-14T00:13:42.500Z,101595.91
2023-05-14T00:16:10.533Z,101593.38
2023-05-14T00:18:38.253Z,101595.16
2023-05-14T00:21:05.908Z,101596.00
2023-05-14T00:23:33.897Z,101597.81
2023-05-14T00:26:01.473Z,101593.50
2023-05-14T00:28:29.071Z,101591.03
2023-05-14T00:30:58.367Z,101591.88
2023-05-14T00:33:26.011Z,101594.50
2023-05-14T00:35:53.577Z,101577.84
2023-05-14T00:38:21.470Z,101590.91
2023-05-14T00:40:49.010Z,101590.97
2023-05-14T00:43:16.796Z,101600.53
2023-05-14T00:45:45.165Z,101597.03
2023-05-14T00:48:15.102Z,101600.53
2023-05-14T00:50:42.987Z,101600.53
2023-05-14T00:53:11.281Z,101597.84
2023-05-14T00:55:40.554Z,101606.47
2023-05-14T00:58:10.503Z,101603.09
2023-05-14T01:00:39.506Z,101601.44
2023-05-14T01:03:08.256Z,101601.44
2023-05-14T01:05:46.182Z,101601.44
2023-05-14T01:08:24.221Z,101597.91
2023-05-14T01:10:55.492Z,101602.25
2023-05-14T01:13:31.611Z,101597.84
2023-05-14T01:16:01.052Z,101598.66
2023-05-14T01:18:31.094Z,101596.91
2023-05-14T01:21:00.145Z,101602.22
2023-05-14T01:23:29.181Z,101597.78
2023-05-14T01:25:56.884Z,101603.94
2023-05-14T01:28:32.864Z,101601.38
2023-05-14T01:31:06.865Z,101596.19
2023-05-14T01:33:36.377Z,101591.03
2023-05-14T01:36:04.914Z,101602.38
2023-05-14T01:38:35.718Z,101609.31
2023-05-14T01:41:05.162Z,101606.75
2023-05-14T01:43:33.480Z,101599.81
2023-05-14T01:46:01.158Z,101599.81
2023-05-14T01:48:28.830Z,101602.44
2023-05-14T01:50:56.634Z,101599.81
2023-05-14T01:53:24.561Z,101599.81
2023-05-14T01:55:53.557Z,101607.63
2023-05-14T01:58:21.308Z,101593.72
2023-05-14T02:00:48.966Z,101585.00
2023-05-14T02:03:16.508Z,101597.97
2023-05-14T02:05:44.757Z,101600.59
2023-05-14T02:08:12.503Z,101598.81
2023-05-14T02:10:41.053Z,101600.59
2023-05-14T02:13:10.342Z,101597.91
2023-05-14T02:15:38.603Z,101597.88
2023-05-14T02:18:06.450Z,101598.03
2023-05-14T02:20:34.749Z,101604.16
2023-05-14T02:23:02.340Z,101604.19
2023-05-14T02:25:29.945Z,101605.91
2023-05-14T02:27:57.763Z,101604.00
2023-05-14T02:30:26.835Z,101606.50
2023-05-14T02:32:54.566Z,101597.75
2023-05-14T02:35:22.469Z,101603.06
2023-05-14T02:37:50.265Z,101599.47
2023-05-14T02:40:18.063Z,101599.53
2023-05-14T02:42:46.045Z,101593.34
2023-05-14T02:45:13.605Z,101602.94
2023-05-14T02:47:42.849Z,101602.16
2023-05-14T02:50:11.023Z,101600.38
2023-05-14T02:52:38.647Z,101592.47
2023-05-14T02:55:07.060Z,101599.25
2023-05-14T02:57:35.350Z,101598.19
2023-05-14T03:00:02.994Z,101603.16
2023-05-14T03:02:31.325Z,101596.81
2023-05-14T03:05:01.019Z,101604.34
2023-05-14T03:07:29.346Z,101592.63
2023-05-14T03:09:57.242Z,101599.09
2023-05-14T03:12:25.114Z,101589.03
2023-05-14T03:14:53.149Z,101605.19
2023-05-14T03:17:20.874Z,101608.19
2023-05-14T03:19:48.590Z,101601.34
2023-05-14T03:22:17.692Z,101602.16
2023-05-14T03:24:45.473Z,101603.25
2023-05-14T03:27:13.181Z,101598.78
2023-05-14T03:29:40.731Z,101605.72
2023-05-14T03:32:08.486Z,101587.19
2023-05-14T03:34:36.410Z,101613.59
2023-05-14T03:37:04.429Z,101611.59
2023-05-14T03:39:33.876Z,101612.19
2023-05-14T03:42:01.595Z,101608.28
2023-05-14T03:44:29.560Z,101616.06
2023-05-14T03:46:57.372Z,101616.94
2023-05-14T03:49:25.558Z,101614.53
2023-05-14T03:51:53.375Z,101613.09
2023-05-14T03:54:21.068Z,101617.88
2023-05-14T03:56:50.062Z,101618.97
2023-05-14T03:59:17.946Z,101625.66
2023-05-14T04:01:45.575Z,101627.03
2023-05-14T04:04:13.347Z,101628.66
2023-05-14T04:06:41.183Z,101629.91
2023-05-14T04:09:08.939Z,101632.00
2023-05-14T04:11:39.614Z,101637.13
2023-05-14T04:14:08.881Z,101632.69
2023-05-14T04:16:39.606Z,101633.47
2023-05-14T04:19:07.391Z,101636.63
2023-05-14T04:21:35.177Z,101634.94
2023-05-14T04:24:03.306Z,101643.78
2023-05-14T04:26:30.971Z,101629.88
2023-05-14T04:28:58.571Z,101628.06
2023-05-14T04:31:28.025Z,101637.38
2023-05-14T04:33:55.601Z,101645.72
2023-05-14T04:36:23.280Z,101645.44
2023-05-14T04:38:50.959Z,101644.25
2023-05-14T04:41:18.712Z,101646.84
2023-05-14T04:43:47.334Z,101639.31
2023-05-14T04:46:15.125Z,101645.22
2023-05-14T04:48:44.394Z,101648.03
2023-05-14T04:51:11.988Z,101647.44
2023-05-14T04:53:39.757Z,101652.22
2023-05-14T04:56:07.907Z,101654.78
2023-05-14T04:58:35.481Z,101649.59
2023-05-14T05:01:04.659Z,101646.59
2023-05-14T05:03:32.521Z,101657.97
2023-05-14T05:06:01.773Z,101656.28
2023-05-14T05:08:29.657Z,101652.31
2023-05-14T05:10:57.407Z,101656.59
2023-05-14T05:13:25.071Z,101656.50
2023-05-14T05:15:52.874Z,101647.09
2023-05-14T05:18:21.366Z,101653.56
2023-05-14T05:20:48.973Z,101655.91
2023-05-14T05:23:18.216Z,101661.66
2023-05-14T05:25:46.033Z,101660.28
2023-05-14T05:28:13.594Z,101663.69
2023-05-14T05:30:41.251Z,101663.03
2023-05-14T05:33:09.324Z,101656.06
2023-05-14T05:35:37.341Z,101667.44
2023-05-14T05:38:05.054Z,101664.19
2023-05-14T05:40:34.573Z,101665.41
2023-05-14T05:43:02.118Z,101669.56
2023-05-14T05:45:30.570Z,101663.78
2023-05-14T05:47:58.473Z,101668.97
2023-05-14T05:50:28.551Z,101666.69
2023-05-14T05:53:01.520Z,101674.13
2023-05-14T05:55:29.557Z,101678.00
2023-05-14T05:57:58.717Z,101680.34
2023-05-14T06:00:26.747Z,101676.44
2023-05-14T06:02:54.536Z,101675.06
2023-05-14T06:05:22.372Z,101677.94
2023-05-14T06:07:50.113Z,101683.47
2023-05-14T06:10:17.862Z,101691.75
2023-05-14T06:12:45.724Z,101681.03
2023-05-14T06:15:15.128Z,101670.84
2023-05-14T06:17:43.062Z,101691.53
2023-05-14T06:20:11.702Z,101686.88
2023-05-14T06:22:40.237Z,101682.38
2023-05-14T06:25:08.756Z,101674.53
2023-05-14T06:27:36.733Z,101684.03
2023-05-14T06:30:05.287Z,101689.69
2023-05-14T06:32:34.818Z,101686.56
2023-05-14T06:35:02.555Z,101682.25
2023-05-14T06:37:30.539Z,101690.06
2023-05-14T06:39:58.194Z,101689.38
2023-05-14T06:42:26.105Z,101691.75
2023-05-14T06:44:53.891Z,101688.53
2023-05-14T06:47:21.474Z,101692.91
2023-05-14T06:49:50.633Z,101689.34
2023-05-14T06:52:18.357Z,101679.84
2023-05-14T06:54:45.887Z,101674.19
2023-05-14T06:57:13.583Z,101676.66
2023-05-14T06:59:41.326Z,101676.19
2023-05-14T07:02:09.033Z,101676.19
2023-05-14T07:04:36.787Z,101685.88
2023-05-14T07:07:06.188Z,101680.72
2023-05-14T07:09:33.894Z,101675.50
2023-05-14T07:12:01.700Z,101681.81
2023-05-14T07:14:29.653Z,101673.50
2023-05-14T07:16:57.416Z,101666.31
2023-05-14T07:19:25.161Z,101672.97
2023-05-14T07:21:53.270Z,101670.31
2023-05-14T07:24:22.287Z,101663.91
2023-05-14T07:26:50.136Z,101665.66
2023-05-14T07:29:17.910Z,101665.00
2023-05-14T07:31:45.546Z,101657.94
2023-05-14T07:34:13.336Z,101658.69
2023-05-14T07:36:41.207Z,101652.47
2023-05-14T07:39:08.908Z,101662.44
2023-05-14T07:41:38.184Z,101658.59
2023-05-14T07:44:05.838Z,101656.56
2023-05-14T07:46:33.463Z,101649.03
2023-05-14T07:49:01.122Z,101633.69
2023-05-14T07:51:28.924Z,101654.88
2023-05-14T07:53:56.478Z,101654.66
2023-05-14T07:56:24.250Z,101650.19
2023-05-14T07:58:53.450Z,101636.97
2023-05-14T08:01:21.100Z,101643.53
2023-05-14T08:03:49.111Z,101653.25
2023-05-14T08:06:16.935Z,101654.31
2023-05-14T08:08:44.708Z,101643.63
2023-05-14T08:11:12.382Z,101645.25
2023-05-14T08:13:40.129Z,101643.41
2023-05-14T08:16:09.242Z,101640.75
2023-05-14T08:18:36.967Z,101646.13
2023-05-14T08:21:05.173Z,101646.25
2023-05-14T08:23:33.173Z,101643.69
2023-05-14T08:26:00.893Z,101639.69
2023-05-14T08:28:28.495Z,101639.94
2023-05-14T08:30:56.092Z,101637.09
2023-05-14T08:33:25.275Z,101637.66
2023-05-14T08:35:53.676Z,101630.34
2023-05-14T08:38:21.261Z,101633.81
2023-05-14T08:40:54.020Z,101636.38
2023-05-14T08:43:28.090Z,101633.97
2023-05-14T08:46:01.240Z,101633.38
2023-05-14T08:48:33.733Z,101628.72
2023-05-14T08:51:02.451Z,101613.28
2023-05-14T08:53:31.182Z,101628.25
2023-05-14T08:56:01.652Z,101620.44
2023-05-14T08:58:29.606Z,101630.16
2023-05-14T09:00:57.212Z,101624.47
2023-05-14T09:03:25.191Z,101621.78
2023-05-14T09:05:55.212Z,101624.16
2023-05-14T09:08:23.011Z,101620.59
2023-05-14T09:10:50.734Z,101609.81
2023-05-14T09:13:18.622Z,101617.09
2023-05-14T09:15:48.097Z,101614.59
2023-05-14T09:18:15.914Z,101617.53
2023-05-14T09:20:43.899Z,101608.84
2023-05-14T09:23:12.867Z,101618.38
2023-05-14T09:25:40.851Z,101616.06
2023-05-14T09:28:09.634Z,101609.56
2023-05-14T09:30:37.953Z,101600.28
2023-05-14T09:33:05.559Z,101608.69
2023-05-14T09:35:33.641Z,101606.63
2023-05-14T09:38:01.441Z,101605.09
2023-05-14T09:40:30.468Z,101604.53
2023-05-14T09:43:15.882Z,101588.13
2023-05-14T09:45:43.569Z,101603.69
2023-05-14T09:48:11.293Z,101600.69
2023-05-14T09:50:42.765Z,101600.22
2023-05-14T09:53:10.441Z,101596.28
2023-05-14T09:55:39.889Z,101603.50
2023-05-14T09:58:07.704Z,101584.50
2023-05-14T10:00:36.214Z,101602.16
2023-05-14T10:03:06.949Z,101580.63
2023-05-14T10:05:36.075Z,101593.13
2023-05-14T10:08:09.104Z,101586.19
2023-05-14T10:10:39.589Z,101589.91
2023-05-14T10:13:12.773Z,101586.31
2023-05-14T10:15:47.607Z,101592.75
2023-05-14T10:18:19.402Z,101587.91
2023-05-14T10:20:50.755Z,101593.84
2023-05-14T10:23:18.926Z,101587.09
2023-05-14T10:25:48.002Z,101588.28
2023-05-14T10:28:16.257Z,101585.06
2023-05-14T10:30:47.009Z,101589.88
2023-05-14T10:33:15.779Z,101577.91
2023-05-14T10:36:17.499Z,101592.69
2023-05-14T10:38:56.410Z,101554.22
2023-05-14T10:41:31.289Z,101524.31
2023-05-14T10:44:02.612Z,101586.44
2023-05-14T10:46:30.609Z,101590.44
2023-05-14T10:49:03.404Z,101598.69
2023-05-14T10:51:36.597Z,101599.91
2023-05-14T10:54:04.553Z,101591.00
2023-05-14T10:56:34.140Z,101575.81
2023-05-14T10:59:02.979Z,101591.91
2023-05-14T11:01:32.165Z,101588.19
2023-05-14T11:04:00.059Z,101588.44
2023-05-14T11:06:28.402Z,101592.28
2023-05-14T11:08:56.772Z,101600.41
2023-05-14T11:11:24.480Z,101596.28
2023-05-14T11:13:57.179Z,101593.16
2023-05-14T11:16:27.946Z,101587.66
2023-05-14T11:19:01.962Z,101587.16
2023-05-14T11:21:29.976Z,101581.34
2023-05-14T11:23:57.868Z,101575.84
2023-05-14T11:26:25.735Z,101583.03
2023-05-14T11:28:54.942Z,101570.66
2023-05-14T11:31:22.727Z,101573.34
2023-05-14T11:33:52.410Z,101576.41
2023-05-14T11:36:20.404Z,101582.38
2023-05-14T11:38:48.425Z,101570.69
2023-05-14T11:41:16.217Z,101573.00
2023-05-14T11:43:44.099Z,101568.28
2023-05-14T11:46:18.299Z,101565.03
2023-05-14T11:48:46.324Z,101571.13
2023-05-14T11:51:13.930Z,101568.84
2023-05-14T11:53:41.745Z,101561.03
2023-05-14T11:56:10.083Z,101550.63
2023-05-14T11:58:37.760Z,101556.69
2023-05-14T12:01:05.827Z,101559.19
2023-05-14T12:03:35.780Z,101558.38
2023-05-14T12:06:07.158Z,101565.94
2023-05-14T12:08:34.890Z,101555.66
2023-05-14T12:11:02.515Z,101549.69
2023-05-14T12:13:31.222Z,101545.38
2023-05-14T12:16:01.027Z,101551.91
2023-05-14T12:18:30.973Z,101549.41
2023-05-14T12:21:04.914Z,101546.09
2023-05-14T12:23:33.274Z,101556.81
2023-05-14T12:26:05.232Z,101553.19
2023-05-14T12:28:34.869Z,101547.13
2023-05-14T12:31:03.785Z,101546.41
2023-05-14T12:33:31.657Z,101533.56
2023-05-14T12:36:02.486Z,101543.47
2023-05-14T12:38:39.756Z,101521.81
2023-05-14T12:41:07.326Z,101534.56
2023-05-14T12:43:35.336Z,101528.25
2023-05-14T12:46:03.192Z,101529.44
2023-05-14T12:48:30.855Z,101532.22
2023-05-14T12:50:58.389Z,101532.34
2023-05-14T12:53:26.126Z,101527.09
2023-05-14T12:55:55.225Z,101530.16
2023-05-14T12:58:22.993Z,101532.97
2023-05-14T13:00:50.891Z,101525.41
2023-05-14T13:03:18.553Z,101528.94
2023-05-14T13:05:46.113Z,101533.03
2023-05-14T13:08:14.179Z,101532.78
2023-05-14T13:10:41.723Z,101518.66
2023-05-14T13:13:11.422Z,101532.72
2023-05-14T13:15:39.378Z,101525.53
2023-05-14T13:18:09.356Z,101529.09
2023-05-14T13:20:37.185Z,101518.72
2023-05-14T13:23:05.106Z,101518.25
2023-05-14T13:25:32.902Z,101521.47
2023-05-14T13:28:00.449Z,101498.34
2023-05-14T13:30:29.838Z,101519.81
2023-05-14T13:32:57.685Z,101509.38
2023-05-14T13:35:25.601Z,101515.63
2023-05-14T13:37:53.873Z,101508.91
2023-05-14T13:40:21.557Z,101518.44
2023-05-14T13:42:49.228Z,101508.63
2023-05-14T13:45:17.745Z,101509.00
2023-05-14T13:47:46.984Z,101500.25
2023-05-14T13:50:15.532Z,101505.94
2023-05-14T13:52:43.434Z,101506.75
2023-05-14T13:55:11.211Z,101509.03
2023-05-14T13:57:39.645Z,101506.03
2023-05-14T14:00:08.713Z,101501.09
2023-05-14T14:02:38.558Z,101506.81
2023-05-14T14:05:08.830Z,101500.50
2023-05-14T14:07:36.692Z,101496.84
2023-05-14T14:10:05.045Z,101496.19
2023-05-14T14:12:33.066Z,101494.06
2023-05-14T14:15:00.972Z,101491.16
2023-05-14T14:17:28.595Z,101494.47
2023-05-14T14:19:56.251Z,101487.72
2023-05-14T14:22:27.317Z,101492.03
2023-05-14T14:24:56.780Z,101480.53
2023-05-14T14:27:24.392Z,101481.75
2023-05-14T14:29:52.194Z,101476.00
2023-05-14T14:32:20.162Z,101474.41
2023-05-14T14:34:47.940Z,101480.78
2023-05-14T14:37:15.499Z,101477.94
2023-05-14T14:39:44.671Z,101476.75
2023-05-14T14:42:12.721Z,101482.84
2023-05-14T14:44:40.270Z,101476.13
2023-05-14T14:47:08.080Z,101474.41
2023-05-14T14:49:36.320Z,101472.19
2023-05-14T14:52:04.158Z,101472.84
2023-05-14T14:54:32.172Z,101472.13
2023-05-14T14:57:01.384Z,101472.19
2023-05-14T14:59:28.948Z,101459.56
2023-05-14T15:01:56.926Z,101471.31
2023-05-14T15:04:24.692Z,101472.69
2023-05-14T15:06:52.313Z,101456.09
2023-05-14T15:09:20.080Z,101472.47
2023-05-14T15:11:47.736Z,101474.03
2023-05-14T15:14:16.816Z,101470.97
2023-05-14T15:16:44.699Z,101467.59
2023-05-14T15:19:12.742Z,101463.63
2023-05-14T15:21:40.356Z,101466.44
2023-05-14T15:24:11.573Z,101481.97
2023-05-14T15:26:39.453Z,101480.72
2023-05-14T15:29:07.029Z,101472.78
2023-05-14T15:31:36.609Z,101461.56
2023-05-14T15:34:04.792Z,101465.44
2023-05-14T15:36:33.143Z,101467.34
2023-05-14T15:39:00.884Z,101456.75
2023-05-14T15:41:28.908Z,101465.47
2023-05-14T15:43:56.560Z,101456.09
2023-05-14T15:46:24.344Z,101451.09
2023-05-14T15:48:53.427Z,101459.69
2023-05-14T15:51:21.015Z,101465.47
2023-05-14T15:53:48.825Z,101458.97
2023-05-14T15:56:16.512Z,101457.59
2023-05-14T15:58:44.131Z,101463.28
2023-05-14T16:01:11.849Z,101462.19
2023-05-14T16:03:39.735Z,101454.69
2023-05-14T16:06:08.997Z,101468.09
2023-05-14T16:08:37.316Z,101476.66
2023-05-14T16:11:05.486Z,101463.81
2023-05-14T16:13:33.673Z,101447.06
2023-05-14T16:16:01.609Z,101460.78
2023-05-14T16:18:29.787Z,101465.41
2023-05-14T16:20:57.387Z,101471.69
2023-05-14T16:23:26.653Z,101468.22
2023-05-14T16:25:54.369Z,101473.28
2023-05-14T16:28:22.053Z,101457.31
2023-05-14T16:30:49.778Z,101450.34
2023-05-14T16:33:17.672Z,101462.84
2023-05-14T16:35:45.312Z,101464.22
2023-05-14T16:38:13.057Z,101470.19
2023-05-14T16:40:42.191Z,101463.69
2023-05-14T16:43:09.761Z,101465.72
2023-05-14T16:45:37.915Z,101466.63
2023-05-14T16:48:06.082Z,101460.88
2023-05-14T16:50:33.986Z,101458.22
2023-05-14T16:53:01.688Z,101448.97
2023-05-14T16:55:29.639Z,101449.44
2023-05-14T16:57:58.631Z,101451.22
2023-05-14T17:00:26.508Z,101448.09
2023-05-14T17:02:54.318Z,101434.50
2023-05-14T17:05:22.450Z,101436.50
2023-05-14T17:07:50.240Z,101418.00
2023-05-14T17:10:20.881Z,101430.91
2023-05-14T17:12:48.718Z,101436.44
2023-05-14T17:15:17.904Z,101437.53
2023-05-14T17:17:48.425Z,101438.03
2023-05-14T17:20:16.900Z,101442.84
2023-05-14T17:22:45.079Z,101448.28
2023-05-14T17:25:12.733Z,101448.09
2023-05-14T17:27:40.367Z,101447.66
2023-05-14T17:30:09.301Z,101453.09
2023-05-14T17:32:38.689Z,101453.88
2023-05-14T17:35:06.575Z,101459.47
2023-05-14T17:37:35.197Z,101455.75
2023-05-14T17:40:03.087Z,101464.19
2023-05-14T17:42:30.920Z,101466.66
2023-05-14T17:44:58.991Z,101469.44
2023-05-14T17:47:26.628Z,101466.75
2023-05-14T17:49:55.687Z,101466.22
2023-05-14T17:52:23.430Z,101465.53
2023-05-14T17:54:51.047Z,101475.47
2023-05-14T17:57:20.762Z,101471.47
2023-05-14T17:59:48.590Z,101482.66
2023-05-14T18:02:22.396Z,101480.19
2023-05-14T18:04:50.432Z,101470.94
2023-05-14T18:07:20.315Z,101420.84
2023-05-14T18:09:48.416Z,101470.59
2023-05-14T18:12:16.598Z,101444.00
2023-05-14T18:14:45.658Z,101463.88
2023-05-14T18:17:14.185Z,101394.09
2023-05-14T18:19:42.285Z,101404.41
2023-05-14T18:22:10.013Z,101456.81
2023-05-14T18:24:40.620Z,101427.84
2023-05-14T18:27:08.979Z,101459.28
2023-05-14T18:29:37.000Z,101450.63
2023-05-14T18:32:07.974Z,101425.03
2023-05-14T18:34:35.978Z,101409.06
2023-05-14T18:37:03.704Z,101478.53
2023-05-14T18:39:31.413Z,101482.34
2023-05-14T18:42:00.660Z,101488.69
2023-05-14T18:44:34.138Z,101479.31
2023-05-14T18:47:01.887Z,101476.94
2023-05-14T18:49:29.608Z,101492.16
2023-05-14T18:51:57.500Z,101468.91
2023-05-14T18:54:35.566Z,101411.44
2023-05-14T18:57:05.574Z,101497.97
2023-05-14T18:59:33.393Z,101491.97
2023-05-14T19:02:01.081Z,101490.53
2023-05-14T19:04:33.555Z,101494.19
2023-05-14T19:07:02.195Z,101437.47
2023-05-14T19:09:30.060Z,101513.47
2023-05-14T19:11:57.716Z,101512.59
2023-05-14T19:14:26.965Z,101512.25
2023-05-14T19:16:54.958Z,101502.91
2023-05-14T19:19:22.886Z,101503.44
2023-05-14T19:21:54.266Z,101507.22
2023-05-14T19:24:26.322Z,101498.78
2023-05-14T19:26:56.414Z,101509.34
2023-05-14T19:29:26.258Z,101512.97
2023-05-14T19:32:04.100Z,101499.25
2023-05-14T19:34:36.110Z,101423.31
2023-05-14T19:37:04.456Z,101511.59
2023-05-14T19:39:33.056Z,101522.13
2023-05-14T19:42:00.638Z,101524.63
2023-05-14T19:44:29.876Z,101527.25
2023-05-14T19:46:57.739Z,101524.47
2023-05-14T19:49:25.402Z,101536.97
2023-05-14T19:51:53.135Z,101532.81
2023-05-14T19:54:20.818Z,101528.50
2023-05-14T19:56:48.864Z,101506.88
2023-05-14T19:59:16.717Z,101505.88
2023-05-14T20:01:45.904Z,101521.41
2023-05-14T20:04:13.578Z,101503.09
2023-05-14T20:06:41.463Z,101506.00
2023-05-14T20:09:09.755Z,101508.75
2023-05-14T20:11:37.925Z,101504.59
2023-05-14T20:14:05.711Z,101509.13
2023-05-14T20:16:33.525Z,101506.03
2023-05-14T20:19:02.669Z,101507.75
2023-05-14T20:21:30.784Z,101494.50
2023-05-14T20:23:58.615Z,101492.91
2023-05-14T20:26:26.301Z,101503.34
2023-05-14T20:28:54.111Z,101497.31
2023-05-14T20:31:21.898Z,101494.69
2023-05-14T20:33:49.541Z,101510.41
2023-05-14T20:36:19.080Z,101498.19
2023-05-14T20:38:46.942Z,101495.13
2023-05-14T20:41:16.077Z,101477.31
2023-05-14T20:43:43.738Z,101463.78
2023-05-14T20:46:11.506Z,101483.84
2023-05-14T20:48:39.319Z,101486.50
2023-05-14T20:51:07.037Z,101477.88
2023-05-14T20:53:36.499Z,101469.88
2023-05-14T20:56:04.167Z,101477.69
2023-05-14T20:58:32.027Z,101469.84
2023-05-14T21:01:00.423Z,101472.63
2023-05-14T21:03:28.301Z,101460.53
2023-05-14T21:05:56.165Z,101448.44
2023-05-14T21:08:23.766Z,101448.66
2023-05-14T21:10:52.961Z,101441.94
2023-05-14T21:13:21.016Z,101464.63
2023-05-14T21:15:49.061Z,101454.22
2023-05-14T21:18:16.650Z,101455.06
2023-05-14T21:20:44.341Z,101448.13
2023-05-14T21:23:12.023Z,101459.47
2023-05-14T21:25:39.641Z,101464.75
2023-05-14T21:28:08.848Z,101469.22
2023-05-14T21:30:36.492Z,101467.66
2023-05-14T21:33:04.335Z,101479.75
2023-05-14T21:35:32.219Z,101471.84
2023-05-14T21:38:00.181Z,101465.69
2023-05-14T21:40:27.799Z,101463.13
2023-05-14T21:42:55.521Z,101456.31
2023-05-14T21:45:24.962Z,101460.72
2023-05-14T21:47:52.972Z,101476.47
2023-05-14T21:50:20.692Z,101479.34
2023-05-14T21:52:48.441Z,101476.72
2023-05-14T21:55:16.167Z,101452.59
2023-05-14T21:57:44.456Z,101471.53
2023-05-14T22:00:13.436Z,101470.53
2023-05-14T22:02:42.700Z,101475.59
2023-05-14T22:05:10.620Z,101466.81
2023-05-14T22:07:38.368Z,101460.09
2023-05-14T22:10:06.521Z,101469.72
2023-05-14T22:12:34.351Z,101456.06
2023-05-14T22:15:02.278Z,101462.41
2023-05-14T22:17:30.834Z,101446.00
2023-05-14T22:20:00.138Z,101455.66
2023-05-14T22:22:27.768Z,101453.13
2023-05-14T22:24:55.821Z,101448.81
2023-05-14T22:27:23.642Z,101449.72
2023-05-14T22:29:51.326Z,101451.47
2023-05-14T22:32:18.889Z,101461.81
2023-05-14T22:34:46.648Z,101463.66
2023-05-14T22:37:15.834Z,101448.06
2023-05-14T22:39:43.592Z,101461.03
2023-05-14T22:42:11.350Z,101466.22
2023-05-14T22:44:39.186Z,101454.16
2023-05-14T22:47:07.065Z,101455.03
2023-05-14T22:49:34.924Z,101454.28
2023-05-14T22:52:02.570Z,101449.88
2023-05-14T22:54:31.831Z,101458.56
2023-05-14T22:56:59.662Z,101458.50
2023-05-14T22:59:27.281Z,101455.88
2023-05-14T23:01:54.927Z,101431.53
2023-05-14T23:04:22.848Z,101445.31
2023-05-14T23:06:50.665Z,101450.50
2023-05-14T23:09:18.229Z,101433.22
2023-05-14T23:11:47.493Z,101433.13
2023-05-14T23:14:15.507Z,101451.25
2023-05-14T23:16:43.162Z,101436.38
2023-05-14T23:19:11.179Z,101429.59
2023-05-14T23:21:39.126Z,101421.06
2023-05-14T23:24:07.350Z,101431.53
2023-05-14T23:26:35.601Z,101439.31
2023-05-14T23:29:04.650Z,101432.22
2023-05-14T23:34:15.554Z,101427.34
2023-05-14T23:36:43.153Z,101430.84
2023-05-14T23:39:11.160Z,101421.19
2023-05-14T23:41:38.970Z,101415.19
2023-05-14T23:44:07.906Z,101406.56
2023-05-14T23:46:35.915Z,101427.53
2023-05-14T23:49:04.056Z,101418.91
2023-05-14T23:51:31.758Z,101410.50
2023-05-14T23:53:59.304Z,101406.16
2023-05-14T23:56:27.744Z,101400.94
2023-05-14T23:58:55.586Z,101405.44
